createdAt,value
2023-02-11T00:01:42.619Z,102353.44
2023-02-11T00:04:12.141Z,102330.25
2023-02-11T00:06:40.213Z,102345.41
2023-02-11T00:09:08.699Z,102336.47
2023-02-11T00:11:37.022Z,102329.28
2023-02-11T00:14:07.838Z,102319.47
2023-02-11T00:16:36.206Z,102316.75
2023-02-11T00:19:05.609Z,102320.25
2023-02-11T00:21:35.445Z,102312.19
2023-02-11T00:24:03.551Z,102315.75
2023-02-11T00:26:33.227Z,102309.53
2023-02-11T00:29:02.560Z,102299.69
2023-02-11T00:31:30.798Z,102293.41
2023-02-11T00:33:59.030Z,102291.59
2023-02-11T00:36:29.386Z,102287.13
2023-02-11T00:38:59.701Z,102268.31
2023-02-11T00:41:27.786Z,102267.38
2023-02-11T00:43:55.938Z,102270.88
2023-02-11T00:46:24.262Z,102271.72
2023-02-11T00:48:55.030Z,102278.88
2023-02-11T00:51:23.126Z,102269.03
2023-02-11T00:53:51.360Z,102266.38
2023-02-11T00:56:20.827Z,102262.72
2023-02-11T00:58:49.037Z,102276.09
2023-02-11T01:01:17.205Z,102260.88
2023-02-11T01:03:47.197Z,102269.75
2023-02-11T01:06:15.336Z,102269.69
2023-02-11T01:08:43.441Z,102266.00
2023-02-11T01:11:14.748Z,102270.44
2023-02-11T01:13:45.703Z,102258.78
2023-02-11T01:16:14.290Z,102261.44
2023-02-11T01:18:44.340Z,102258.75
2023-02-11T01:21:12.542Z,102255.09
2023-02-11T01:23:40.680Z,102256.81
2023-02-11T01:26:08.824Z,102261.25
2023-02-11T01:28:37.103Z,102264.78
2023-02-11T01:31:06.692Z,102269.22
2023-02-11T01:33:35.117Z,102282.56
2023-02-11T01:36:04.135Z,102294.09
2023-02-11T01:38:33.035Z,102292.25
2023-02-11T01:41:03.651Z,102289.53
2023-02-11T01:43:34.582Z,102294.84
2023-02-11T01:46:32.058Z,102285.00
2023-02-11T01:49:03.886Z,102279.56
2023-02-11T01:51:35.216Z,102286.69
2023-02-11T01:54:21.700Z,102274.09
2023-02-11T01:57:09.774Z,102283.06
2023-02-11T01:59:42.166Z,102293.72
2023-02-11T02:02:14.266Z,102275.81
2023-02-11T02:04:47.609Z,102264.16
2023-02-11T02:07:19.139Z,102270.47
2023-02-11T02:09:50.513Z,102262.50
2023-02-11T02:12:18.671Z,102262.41
2023-02-11T02:14:46.828Z,102264.22
2023-02-11T02:17:26.491Z,102266.06
2023-02-11T02:20:27.094Z,102244.56
2023-02-11T02:23:13.285Z,102249.00
2023-02-11T02:26:01.354Z,102251.63
2023-02-11T02:28:48.911Z,102247.16
2023-02-11T02:31:34.930Z,102243.53
2023-02-11T02:34:07.735Z,102242.56
2023-02-11T02:36:39.333Z,102237.16
2023-02-11T02:39:10.088Z,102229.06
2023-02-11T02:41:39.620Z,102231.75
2023-02-11T02:44:08.583Z,102238.88
2023-02-11T02:46:37.545Z,102231.66
2023-02-11T02:49:13.430Z,102235.19
2023-02-11T02:51:57.650Z,102225.28
2023-02-11T02:54:48.937Z,102227.03
2023-02-11T02:57:27.573Z,102227.84
2023-02-11T03:00:07.413Z,102219.75
2023-02-11T03:02:39.253Z,102222.34
2023-02-11T03:05:13.790Z,102216.94
2023-02-11T03:07:45.021Z,102209.78
2023-02-11T03:10:17.297Z,102200.84
2023-02-11T03:12:46.078Z,102199.81
2023-02-11T03:15:14.978Z,102185.44
2023-02-11T03:17:46.595Z,102188.97
2023-02-11T03:20:18.678Z,102179.13
2023-02-11T03:22:49.806Z,102187.19
2023-02-11T03:25:18.280Z,102181.81
2023-02-11T03:27:53.498Z,102199.72
2023-02-11T03:30:27.023Z,102187.19
2023-02-11T03:32:59.176Z,102189.81
2023-02-11T03:35:33.637Z,102183.53
2023-02-11T03:38:05.184Z,102177.28
2023-02-11T03:40:36.368Z,102183.56
2023-02-11T03:43:07.970Z,102193.44
2023-02-11T03:45:37.794Z,102197.91
2023-02-11T03:48:12.364Z,102205.91
2023-02-11T03:50:42.611Z,102221.09
2023-02-11T03:53:11.543Z,102217.50
2023-02-11T03:55:41.320Z,102222.84
2023-02-11T03:58:10.107Z,102208.53
2023-02-11T04:00:41.007Z,102221.00
2023-02-11T04:03:09.838Z,102212.88
2023-02-11T04:05:38.362Z,102202.25
2023-02-11T04:08:08.664Z,102187.06
2023-02-11T04:10:37.176Z,102200.34
2023-02-11T04:13:05.307Z,102184.19
2023-02-11T04:15:33.472Z,102189.47
2023-02-11T04:18:02.005Z,102173.25
2023-02-11T04:20:30.144Z,102177.75
2023-02-11T04:22:58.202Z,102166.06
2023-02-11T04:25:27.726Z,102168.66
2023-02-11T04:27:55.914Z,102172.22
2023-02-11T04:30:24.181Z,102171.28
2023-02-11T04:32:54.232Z,102179.31
2023-02-11T04:35:22.758Z,102179.19
2023-02-11T04:37:50.862Z,102181.88
2023-02-11T04:40:19.100Z,102176.47
2023-02-11T04:42:48.529Z,102185.34
2023-02-11T04:45:16.662Z,102188.84
2023-02-11T04:47:44.759Z,102173.56
2023-02-11T04:50:12.868Z,102169.03
2023-02-11T04:52:40.971Z,102161.91
2023-02-11T04:55:09.415Z,102160.91
2023-02-11T04:57:37.499Z,102168.16
2023-02-11T05:00:08.303Z,102164.53
2023-02-11T05:02:36.449Z,102160.91
2023-02-11T05:05:05.025Z,102142.06
2023-02-11T05:07:33.190Z,102138.50
2023-02-11T05:10:01.326Z,102140.28
2023-02-11T05:12:29.442Z,102133.13
2023-02-11T05:14:57.580Z,102123.25
2023-02-11T05:17:27.042Z,102131.31
2023-02-11T05:19:55.149Z,102114.31
2023-02-11T05:22:23.251Z,102127.75
2023-02-11T05:24:51.407Z,102132.25
2023-02-11T05:27:19.476Z,102131.31
2023-02-11T05:29:47.576Z,102137.63
2023-02-11T05:32:15.713Z,102140.31
2023-02-11T05:34:45.303Z,102149.31
2023-02-11T05:37:13.517Z,102158.28
2023-02-11T05:39:41.775Z,102169.03
2023-02-11T05:42:10.387Z,102174.41
2023-02-11T05:44:38.697Z,102178.88
2023-02-11T05:47:08.564Z,102185.13
2023-02-11T05:49:36.739Z,102194.13
2023-02-11T05:52:06.270Z,102185.13
2023-02-11T05:54:34.350Z,102201.25
2023-02-11T05:57:02.415Z,102199.41
2023-02-11T05:59:30.603Z,102199.38
2023-02-11T06:01:58.673Z,102194.88
2023-02-11T06:04:26.774Z,102185.03
2023-02-11T06:06:54.822Z,102186.78
2023-02-11T06:09:24.317Z,102191.22
2023-02-11T06:11:52.457Z,102187.59
2023-02-11T06:14:20.618Z,102181.25
2023-02-11T06:16:48.675Z,102187.50
2023-02-11T06:19:16.751Z,102195.50
2023-02-11T06:21:44.818Z,102201.75
2023-02-11T06:24:13.441Z,102187.44
2023-02-11T06:26:42.914Z,102191.03
2023-02-11T06:29:11.017Z,102180.22
2023-02-11T06:31:39.882Z,102183.78
2023-02-11T06:34:10.023Z,102192.72
2023-02-11T06:36:39.750Z,102190.91
2023-02-11T06:39:08.608Z,102188.22
2023-02-11T06:41:36.714Z,102181.97
2023-02-11T06:44:06.622Z,102191.78
2023-02-11T06:46:34.762Z,102200.72
2023-02-11T06:49:02.964Z,102205.16
2023-02-11T06:51:31.058Z,102206.91
2023-02-11T06:53:59.140Z,102213.22
2023-02-11T06:56:27.551Z,102211.34
2023-02-11T06:58:56.614Z,102214.03
2023-02-11T07:01:27.598Z,102213.94
2023-02-11T07:03:56.181Z,102222.00
2023-02-11T07:06:27.831Z,102220.25
2023-02-11T07:08:56.727Z,102215.75
2023-02-11T07:11:26.985Z,102214.03
2023-02-11T07:13:57.381Z,102207.69
2023-02-11T07:16:27.209Z,102214.81
2023-02-11T07:18:55.327Z,102221.19
2023-02-11T07:21:24.312Z,102244.38
2023-02-11T07:23:52.539Z,102251.50
2023-02-11T07:26:22.944Z,102261.28
2023-02-11T07:28:51.584Z,102273.72
2023-02-11T07:31:21.796Z,102269.22
2023-02-11T07:33:53.267Z,102281.78
2023-02-11T07:36:21.821Z,102290.66
2023-02-11T07:38:50.790Z,102290.66
2023-02-11T07:41:21.254Z,102297.78
2023-02-11T07:43:49.819Z,102292.41
2023-02-11T07:46:20.152Z,102291.38
2023-02-11T07:48:48.506Z,102283.25
2023-02-11T07:51:19.521Z,102281.44
2023-02-11T07:53:47.798Z,102280.50
2023-02-11T07:56:17.415Z,102281.34
2023-02-11T07:58:46.093Z,102289.31
2023-02-11T08:01:15.802Z,102294.56
2023-02-11T08:03:44.246Z,102309.75
2023-02-11T08:06:13.685Z,102307.84
2023-02-11T08:08:43.614Z,102309.66
2023-02-11T08:11:13.876Z,102309.66
2023-02-11T08:13:42.065Z,102307.94
2023-02-11T08:16:10.983Z,102317.75
2023-02-11T08:18:39.097Z,102307.00
2023-02-11T08:21:08.011Z,102306.13
2023-02-11T08:23:37.626Z,102310.53
2023-02-11T08:26:08.903Z,102316.63
2023-02-11T08:28:37.525Z,102316.59
2023-02-11T08:31:09.134Z,102325.50
2023-02-11T08:33:37.684Z,102331.78
2023-02-11T08:36:09.761Z,102343.34
2023-02-11T08:38:37.922Z,102339.69
2023-02-11T08:41:07.906Z,102339.69
2023-02-11T08:43:35.998Z,102337.91
2023-02-11T08:46:04.353Z,102337.91
2023-02-11T08:48:32.587Z,102346.91
2023-02-11T08:51:00.955Z,102346.00
2023-02-11T08:53:29.006Z,102348.56
2023-02-11T08:55:57.084Z,102336.84
2023-02-11T08:58:26.572Z,102343.97
2023-02-11T09:00:54.829Z,102340.28
2023-02-11T09:03:22.939Z,102331.22
2023-02-11T09:05:53.157Z,102340.09
2023-02-11T09:08:21.905Z,102329.38
2023-02-11T09:10:50.353Z,102342.81
2023-02-11T09:13:18.615Z,102357.09
2023-02-11T09:15:48.164Z,102366.03
2023-02-11T09:18:16.281Z,102363.34
2023-02-11T09:20:44.409Z,102357.97
2023-02-11T09:23:12.687Z,102368.72
2023-02-11T09:25:41.303Z,102348.03
2023-02-11T09:28:09.861Z,102341.72
2023-02-11T09:30:38.809Z,102345.19
2023-02-11T09:33:08.332Z,102352.25
2023-02-11T09:35:36.612Z,102359.28
2023-02-11T09:38:05.062Z,102360.00
2023-02-11T09:40:33.208Z,102363.53
2023-02-11T09:43:05.091Z,102371.47
2023-02-11T09:45:33.531Z,102365.00
2023-02-11T09:48:06.149Z,102372.78
2023-02-11T09:50:37.355Z,102369.91
2023-02-11T09:53:12.812Z,102371.72
2023-02-11T09:55:43.191Z,102377.06
2023-02-11T09:58:14.970Z,102380.63
2023-02-11T10:00:46.290Z,102376.97
2023-02-11T10:03:39.651Z,102361.59
2023-02-11T10:06:20.022Z,102374.84
2023-02-11T10:08:57.468Z,102376.47
2023-02-11T10:11:31.882Z,102374.66
2023-02-11T10:14:08.761Z,102390.72
2023-02-11T10:16:48.227Z,102382.69
2023-02-11T10:19:31.235Z,102381.00
2023-02-11T10:22:07.802Z,102375.78
2023-02-11T10:24:36.391Z,102383.16
2023-02-11T10:27:12.997Z,102391.28
2023-02-11T10:29:44.584Z,102381.63
2023-02-11T10:32:21.443Z,102376.19
2023-02-11T10:34:49.709Z,102370.75
2023-02-11T10:37:19.157Z,102374.44
2023-02-11T10:39:47.294Z,102383.22
2023-02-11T10:42:15.967Z,102388.53
2023-02-11T10:44:57.935Z,102387.47
2023-02-11T10:47:29.456Z,102393.63
2023-02-11T10:50:03.269Z,102405.16
2023-02-11T10:52:32.808Z,102408.78
2023-02-11T10:55:04.667Z,102417.78
2023-02-11T10:57:36.603Z,102409.72
2023-02-11T11:00:22.922Z,102414.13
2023-02-11T11:02:56.268Z,102412.34
2023-02-11T11:05:30.553Z,102416.84
2023-02-11T11:08:01.454Z,102419.38
2023-02-11T11:10:44.371Z,102415.72
2023-02-11T11:13:31.697Z,102421.25
2023-02-11T11:16:21.001Z,102422.25
2023-02-11T11:18:50.763Z,102415.03
2023-02-11T11:21:22.758Z,102416.75
2023-02-11T11:23:56.084Z,102419.22
2023-02-11T11:26:26.340Z,102425.50
2023-02-11T11:29:01.523Z,102411.00
2023-02-11T11:31:32.724Z,102407.28
2023-02-11T11:34:02.347Z,102404.59
2023-02-11T11:36:39.630Z,102409.81
2023-02-11T11:39:21.561Z,102421.31
2023-02-11T11:41:55.614Z,102420.34
2023-02-11T11:44:29.702Z,102440.78
2023-02-11T11:47:21.669Z,102442.50
2023-02-11T11:49:55.253Z,102434.31
2023-02-11T11:52:34.622Z,102443.09
2023-02-11T11:55:08.895Z,102440.63
2023-02-11T11:57:39.179Z,102443.28
2023-02-11T12:00:16.360Z,102425.19
2023-02-11T12:03:27.889Z,102426.81
2023-02-11T12:06:15.048Z,102412.44
2023-02-11T12:08:49.829Z,102411.47
2023-02-11T12:11:24.317Z,102409.75
2023-02-11T12:14:03.894Z,102416.91
2023-02-11T12:16:40.818Z,102429.53
2023-02-11T12:19:52.424Z,102426.75
2023-02-11T12:22:32.211Z,102427.75
2023-02-11T12:25:22.048Z,102432.28
2023-02-11T12:27:57.831Z,102423.44
2023-02-11T12:30:40.510Z,102436.78
2023-02-11T12:33:16.316Z,102434.84
2023-02-11T12:35:53.500Z,102451.81
2023-02-11T12:38:34.774Z,102455.44
2023-02-11T12:41:15.715Z,102464.53
2023-02-11T12:43:45.127Z,102467.47
2023-02-11T12:46:39.566Z,102462.38
2023-02-11T12:49:18.472Z,102477.66
2023-02-11T12:52:01.152Z,102474.91
2023-02-11T12:54:32.788Z,102484.75
2023-02-11T12:57:05.284Z,102487.50
2023-02-11T12:59:41.633Z,102491.19
2023-02-11T13:02:20.324Z,102497.50
2023-02-11T13:04:51.536Z,102501.19
2023-02-11T13:07:24.174Z,102499.38
2023-02-11T13:09:56.139Z,102502.84
2023-02-11T13:12:42.205Z,102496.47
2023-02-11T13:15:15.997Z,102499.91
2023-02-11T13:17:51.688Z,102505.09
2023-02-11T13:20:28.101Z,102505.81
2023-02-11T13:23:00.414Z,102503.91
2023-02-11T13:25:33.462Z,102500.22
2023-02-11T13:28:07.279Z,102500.22
2023-02-11T13:30:39.457Z,102501.09
2023-02-11T13:33:20.495Z,102493.78
2023-02-11T13:36:16.324Z,102497.03
2023-02-11T13:38:56.911Z,102499.47
2023-02-11T13:41:29.238Z,102503.97
2023-02-11T13:44:02.942Z,102505.09
2023-02-11T13:46:53.834Z,102528.72
2023-02-11T13:49:24.768Z,102523.75
2023-02-11T13:51:54.215Z,102532.19
2023-02-11T13:54:29.601Z,102527.25
2023-02-11T13:57:22.793Z,102531.94
2023-02-11T13:59:51.966Z,102521.38
2023-02-11T14:02:49.080Z,102525.97
2023-02-11T14:05:52.617Z,102527.91
2023-02-11T14:08:42.852Z,102530.88
2023-02-11T14:11:27.411Z,102537.31
2023-02-11T14:14:16.166Z,102533.69
2023-02-11T14:17:23.003Z,102540.94
2023-02-11T14:19:52.753Z,102543.53
2023-02-11T14:22:25.900Z,102548.78
2023-02-11T14:24:56.650Z,102549.84
2023-02-11T14:27:42.146Z,102554.44
2023-02-11T14:30:44.986Z,102559.06
2023-02-11T14:33:45.760Z,102557.28
2023-02-11T14:36:24.211Z,102558.13
2023-02-11T14:39:01.551Z,102562.56
2023-02-11T14:41:31.902Z,102565.09
2023-02-11T14:44:02.076Z,102565.88
2023-02-11T14:46:32.821Z,102579.19
2023-02-11T14:49:02.963Z,102573.75
2023-02-11T14:51:36.194Z,102571.88
2023-02-11T14:54:10.914Z,102578.94
2023-02-11T14:56:39.749Z,102568.09
2023-02-11T14:59:17.470Z,102577.03
2023-02-11T15:01:49.897Z,102587.75
2023-02-11T15:04:25.868Z,102596.56
2023-02-11T15:06:57.397Z,102607.34
2023-02-11T15:09:30.851Z,102607.41
2023-02-11T15:11:59.518Z,102605.59
2023-02-11T15:14:28.980Z,102612.78
2023-02-11T15:16:59.584Z,102610.09
2023-02-11T15:19:34.191Z,102609.25
2023-02-11T15:22:05.341Z,102613.72
2023-02-11T15:24:35.299Z,102616.47
2023-02-11T15:27:05.215Z,102621.75
2023-02-11T15:29:37.867Z,102629.78
2023-02-11T15:32:08.041Z,102630.59
2023-02-11T15:34:36.873Z,102638.53
2023-02-11T15:37:07.285Z,102635.00
2023-02-11T15:39:38.222Z,102641.31
2023-02-11T15:42:31.430Z,102628.66
2023-02-11T15:45:15.221Z,102629.41
2023-02-11T15:47:49.712Z,102635.81
2023-02-11T15:50:22.367Z,102625.19
2023-02-11T15:52:52.388Z,102641.38
2023-02-11T15:55:21.368Z,102645.06
2023-02-11T15:57:54.707Z,102649.56
2023-02-11T16:00:24.829Z,102651.38
2023-02-11T16:02:53.430Z,102653.19
2023-02-11T16:05:35.158Z,102666.00
2023-02-11T16:08:20.780Z,102667.16
2023-02-11T16:10:58.494Z,102676.38
2023-02-11T16:13:30.186Z,102679.25
2023-02-11T16:16:02.321Z,102679.31
2023-02-11T16:18:38.819Z,102678.63
2023-02-11T16:21:14.801Z,102684.13
2023-02-11T16:23:50.397Z,102672.59
2023-02-11T16:26:23.987Z,102674.34
2023-02-11T16:28:52.413Z,102672.50
2023-02-11T16:31:20.749Z,102679.63
2023-02-11T16:33:48.881Z,102693.09
2023-02-11T16:36:18.274Z,102699.41
2023-02-11T16:38:47.755Z,102699.50
2023-02-11T16:41:15.874Z,102708.50
2023-02-11T16:43:44.047Z,102714.88
2023-02-11T16:46:15.439Z,102718.44
2023-02-11T16:48:43.942Z,102706.75
2023-02-11T16:51:13.180Z,102706.78
2023-02-11T16:53:41.540Z,102700.56
2023-02-11T16:56:16.595Z,102721.28
2023-02-11T16:58:45.126Z,102722.25
2023-02-11T17:01:14.213Z,102722.28
2023-02-11T17:03:43.675Z,102731.25
2023-02-11T17:06:13.516Z,102742.00
2023-02-11T17:08:41.737Z,102756.34
2023-02-11T17:11:09.826Z,102756.41
2023-02-11T17:13:39.529Z,102756.50
2023-02-11T17:16:16.927Z,102762.88
2023-02-11T17:18:45.113Z,102763.84
2023-02-11T17:21:13.240Z,102763.13
2023-02-11T17:23:41.335Z,102775.72
2023-02-11T17:26:10.331Z,102774.94
2023-02-11T17:28:39.832Z,102783.94
2023-02-11T17:31:09.441Z,102778.72
2023-02-11T17:33:38.877Z,102784.13
2023-02-11T17:36:08.200Z,102777.84
2023-02-11T17:38:37.201Z,102785.84
2023-02-11T17:41:06.715Z,102795.69
2023-02-11T17:43:34.985Z,102801.03
2023-02-11T17:46:06.643Z,102804.56
2023-02-11T17:48:36.802Z,102813.44
2023-02-11T17:51:05.301Z,102822.34
2023-02-11T17:53:33.445Z,102828.59
2023-02-11T17:56:06.294Z,102829.53
2023-02-11T17:58:34.388Z,102833.09
2023-02-11T18:01:03.896Z,102838.44
2023-02-11T18:03:33.054Z,102847.34
2023-02-11T18:06:02.075Z,102843.69
2023-02-11T18:08:30.440Z,102842.81
2023-02-11T18:10:58.529Z,102846.38
2023-02-11T18:13:26.672Z,102843.72
2023-02-11T18:15:54.761Z,102854.50
2023-02-11T18:18:24.224Z,102866.22
2023-02-11T18:20:57.666Z,102884.94
2023-02-11T18:23:25.918Z,102887.63
2023-02-11T18:25:54.208Z,102902.88
2023-02-11T18:28:22.608Z,102905.53
2023-02-11T18:30:57.049Z,102899.31
2023-02-11T18:33:27.258Z,102894.00
2023-02-11T18:35:55.342Z,102893.16
2023-02-11T18:38:23.466Z,102886.84
2023-02-11T18:40:52.448Z,102878.66
2023-02-11T18:43:21.050Z,102879.50
2023-02-11T18:45:50.062Z,102870.56
2023-02-11T18:48:19.269Z,102880.41
2023-02-11T18:50:48.870Z,102876.81
2023-02-11T18:53:17.025Z,102866.94
2023-02-11T18:55:46.185Z,102869.72
2023-02-11T18:58:15.305Z,102861.72
2023-02-11T19:00:46.554Z,102859.06
2023-02-11T19:03:14.888Z,102860.00
2023-02-11T19:05:43.417Z,102872.56
2023-02-11T19:08:13.287Z,102881.53
2023-02-11T19:10:42.528Z,102885.13
2023-02-11T19:13:10.988Z,102885.22
2023-02-11T19:15:42.374Z,102889.69
2023-02-11T19:18:10.606Z,102889.75
2023-02-11T19:20:40.360Z,102888.00
2023-02-11T19:23:08.743Z,102893.34
2023-02-11T19:25:38.698Z,102905.00
2023-02-11T19:28:07.090Z,102904.19
2023-02-11T19:30:36.972Z,102904.16
2023-02-11T19:33:05.229Z,102904.06
2023-02-11T19:35:36.317Z,102907.69
2023-02-11T19:38:04.884Z,102908.66
2023-02-11T19:40:33.386Z,102914.91
2023-02-11T19:43:02.936Z,102910.38
2023-02-11T19:45:31.094Z,102922.91
2023-02-11T19:47:59.340Z,102916.72
2023-02-11T19:50:27.409Z,102922.97
2023-02-11T19:52:56.165Z,102923.84
2023-02-11T19:55:24.290Z,102929.19
2023-02-11T19:57:52.369Z,102926.50
2023-02-11T20:00:22.544Z,102934.53
2023-02-11T20:02:50.716Z,102944.38
2023-02-11T20:05:18.990Z,102954.22
2023-02-11T20:07:47.069Z,102958.66
2023-02-11T20:10:15.376Z,102964.91
2023-02-11T20:12:43.515Z,102977.44
2023-02-11T20:15:11.610Z,102981.88
2023-02-11T20:17:41.124Z,102975.59
2023-02-11T20:20:10.127Z,102985.38
2023-02-11T20:22:38.338Z,102977.38
2023-02-11T20:25:07.288Z,102980.13
2023-02-11T20:27:35.355Z,102981.03
2023-02-11T20:30:03.497Z,102967.69
2023-02-11T20:32:37.780Z,102965.09
2023-02-11T20:35:09.379Z,102969.53
2023-02-11T20:37:38.689Z,102978.47
2023-02-11T20:40:08.328Z,102986.53
2023-02-11T20:42:36.472Z,102981.13
2023-02-11T20:45:04.728Z,102986.47
2023-02-11T20:47:32.831Z,102984.66
2023-02-11T20:50:00.959Z,102980.25
2023-02-11T20:52:30.412Z,102980.34
2023-02-11T20:54:58.657Z,102989.31
2023-02-11T20:57:26.733Z,102986.66
2023-02-11T20:59:54.900Z,102993.84
2023-02-11T21:02:24.766Z,102999.22
2023-02-11T21:04:53.090Z,103006.41
2023-02-11T21:07:21.183Z,103014.47
2023-02-11T21:09:50.643Z,103014.44
2023-02-11T21:12:18.941Z,103023.47
2023-02-11T21:14:47.070Z,103019.91
2023-02-11T21:17:15.294Z,103025.25
2023-02-11T21:19:43.966Z,103024.34
2023-02-11T21:22:12.027Z,103026.13
2023-02-11T21:24:40.148Z,103029.72
2023-02-11T21:27:09.626Z,103027.09
2023-02-11T21:29:52.686Z,103029.84
2023-02-11T21:32:22.107Z,103036.09
2023-02-11T21:34:50.182Z,103034.25
2023-02-11T21:37:18.227Z,103031.53
2023-02-11T21:39:46.383Z,103032.38
2023-02-11T21:42:15.892Z,103038.63
2023-02-11T21:44:43.997Z,103037.78
2023-02-11T21:47:12.117Z,103033.28
2023-02-11T21:49:40.251Z,103043.28
2023-02-11T21:52:08.327Z,103045.13
2023-02-11T21:54:36.503Z,103059.47
2023-02-11T21:57:04.748Z,103066.63
2023-02-11T21:59:34.213Z,103064.78
2023-02-11T22:02:02.277Z,103065.72
2023-02-11T22:04:30.864Z,103067.44
2023-02-11T22:06:59.000Z,103065.63
2023-02-11T22:09:27.119Z,103069.16
2023-02-11T22:11:55.229Z,103067.34
2023-02-11T22:14:23.433Z,103076.31
2023-02-11T22:16:52.954Z,103064.66
2023-02-11T22:19:21.104Z,103075.41
2023-02-11T22:21:49.160Z,103072.81
2023-02-11T22:24:17.264Z,103072.81
2023-02-11T22:26:45.523Z,103068.38
2023-02-11T22:29:13.616Z,103063.94
2023-02-11T22:31:41.725Z,103082.78
2023-02-11T22:34:11.261Z,103082.78
2023-02-11T22:36:41.295Z,103070.25
2023-02-11T22:39:12.028Z,103075.63
2023-02-11T22:41:41.152Z,103078.28
2023-02-11T22:44:09.282Z,103084.50
2023-02-11T22:46:38.058Z,103087.16
2023-02-11T22:49:07.175Z,103091.66
2023-02-11T22:51:36.919Z,103094.38
2023-02-11T22:54:06.621Z,103088.19
2023-02-11T22:56:35.986Z,103090.00
2023-02-11T22:59:09.216Z,103095.44
2023-02-11T23:01:37.328Z,103089.19
2023-02-11T23:04:06.856Z,103092.88
2023-02-11T23:06:36.524Z,103101.94
2023-02-11T23:09:05.212Z,103114.56
2023-02-11T23:11:33.748Z,103117.28
2023-02-11T23:14:03.045Z,103118.25
2023-02-11T23:16:33.602Z,103114.63
2023-02-11T23:19:03.522Z,103111.97
2023-02-11T23:21:34.052Z,103113.81
2023-02-11T23:24:05.914Z,103121.94
2023-02-11T23:26:34.135Z,103122.00
2023-02-11T23:29:02.314Z,103117.56
2023-02-11T23:31:34.004Z,103122.91
2023-02-11T23:34:02.379Z,103130.06
2023-02-11T23:36:31.007Z,103131.84
2023-02-11T23:38:59.221Z,103144.47
2023-02-11T23:41:28.803Z,103147.25
2023-02-11T23:43:58.744Z,103148.22
2023-02-11T23:46:27.576Z,103149.16
2023-02-11T23:48:55.804Z,103155.41
2023-02-11T23:51:24.522Z,103153.63
2023-02-11T23:53:54.773Z,103168.81
2023-02-11T23:56:24.849Z,103159.81
2023-02-11T23:58:56.475Z,103167.81
